This is the latest recevied weather packets stored in our database for station/object KD5GAT-51. If no packets are shown the sender has not sent any weather packets the latest 10 day(s).
| Time | Temp. | Humidity | Pressure | Rain* | Wind** | Luminosity | Snow |
|---|---|---|---|---|---|---|---|
| 1788303493 | 40.56° C | 30% | 1014.2 hPa | - | - | - | - |
| 1788302593 | 42.22° C | 30% | 1014.3 hPa | - | - | - | - |
| 1788301693 | 41.67° C | 29% | 1014.3 hPa | - | - | - | - |
| 1788300793 | 41.11° C | 30% | 1014.3 hPa | - | - | - | - |
| 1788299893 | 41.11° C | 30% | 1014.4 hPa | - | - | - | - |
| 1788298992 | 41.11° C | 29% | 1014.4 hPa | - | - | - | - |
| 1788298092 | 41.67° C | 29% | 1014.6 hPa | - | - | - | - |
| 1788297192 | 41.11° C | 31% | 1014.8 hPa | - | - | - | - |
| 1788296292 | 41.67° C | 30% | 1015.1 hPa | - | - | - | - |
| 1788295392 | 41.67° C | 30% | 1015.4 hPa | - | - | - | - |
| 1788294492 | 41.11° C | 31% | 1015.6 hPa | - | - | - | - |
| 1788293591 | 41.11° C | 31% | 1015.8 hPa | - | - | - | - |
| 1788292691 | 41.11° C | 33% | 1016.1 hPa | - | - | - | - |
| 1788291791 | 41.11° C | 33% | 1016.2 hPa | - | - | - | - |
| 1788290890 | 40.56° C | 33% | 1016.4 hPa | - | - | - | - |
| 1788289990 | 40° C | 33% | 1016.7 hPa | - | - | - | - |
| 1788224293 | 35° C | 47% | 1014.5 hPa | - | - | - | - |
| 1788223393 | 35.56° C | 43% | 1014.5 hPa | - | - | - | - |
| 1788222493 | 36.67° C | 40% | 1014.3 hPa | - | - | - | - |
| 1788221593 | 37.22° C | 39% | 1014.3 hPa | - | - | - | - |
| 1788220693 | 37.78° C | 37% | 1014.2 hPa | - | - | - | - |
| 1788219793 | 38.33° C | 37% | 1014.1 hPa | - | - | - | - |
| 1788218892 | 38.33° C | 36% | 1014.2 hPa | - | - | - | - |
| 1788217992 | 38.33° C | 37% | 1014.1 hPa | - | - | - | - |
| 1788217092 | 39.44° C | 35% | 1014.3 hPa | - | - | - | - |
* Rain since midnight (hover to see other rain measurements)
** Current wind speed in m/s (hover to see current wind gust speed)